OIFS  Shahrekord Airport

Add Bookmark

Shahrekord, Iran

Status IATA
Operational CQD
Latitude Longitude
32° 17' 49" N 50° 50' 31" E
32.297199 50.842201
Local (DST + 5) UTC (GMT + 4)
Aug 28, 2014 07:36 Aug 28, 2014 15:06
Sunrise-Sunset Local UTC
Begin Civil Twilight 06:12 01:42
Sunrise 06:38 02:08
Sunset 07:37 15:07
End Civil Twilight 08:02 15:32

Current Weather

METAR Observed VFR
OIFS 281400Z 08008KT 9999 FEW030CB FEW035 26/M00 Q1020 Thu, Aug 28, 2014 @ 14:00 UTC
(1 Hour, 6 Minutes ago)
Visual Flight Rules
Wind Visibility Clouds Conditions
080° at 8 knots (15 kph) 10 km or more
  • Few at 3,000' AGL
  • Few at 3,500' AGL
  • No significant weather
Temperatures Readings Precipitation
Current Temp 26°C (79°F)
Dewpoint 0°C (32°F)
Humidity 18%
Altimeter 30.12"Hg
Sea Level Pressure 1020mb
Field Elevation 6817.59'
None Recorded

Additional weather within a 185.2km radius of OIFS

Map ICAO Location
OIFM 108km E (062°)
OIAI 151.5km W (258°)

24 Hour Weather History

Loading
-

24 Hour Weather Graphs

Loading
-

CheckWX.com is intended as a tool to help pilots better visualize weather data. It is not intended as a substitute for an official weather briefing obtained from a Flight Service Station. CheckWX.com does not meet the FAA requirements for an official pre-flight weather briefing. Therefore, it's important that pilots still call and obtain an official FSS pre-flight weather briefing.